createdAt,value
2022-07-30T00:00:41.201Z,3.70
2022-07-30T00:03:09.543Z,3.10
2022-07-30T00:05:39.212Z,1.83
2022-07-30T00:08:07.873Z,3.87
2022-07-30T00:10:36.277Z,2.30
2022-07-30T00:13:04.761Z,3.40
2022-07-30T00:15:33.135Z,3.67
2022-07-30T00:18:01.465Z,4.27
2022-07-30T00:20:29.864Z,3.83
2022-07-30T00:23:04.160Z,2.43
2022-07-30T00:25:33.321Z,2.93
2022-07-30T00:28:01.631Z,6.33
2022-07-30T00:30:30.119Z,2.03
2022-07-30T00:32:58.674Z,3.47
2022-07-30T00:35:27.638Z,2.80
2022-07-30T00:37:56.424Z,4.60
2022-07-30T00:40:26.565Z,1.97
2022-07-30T00:42:55.457Z,4.07
2022-07-30T00:45:23.966Z,2.93
2022-07-30T00:47:52.231Z,3.03
2022-07-30T00:50:20.575Z,5.30
2022-07-30T00:52:49.984Z,2.13
2022-07-30T00:55:18.708Z,4.50
2022-07-30T00:57:48.848Z,4.20
2022-07-30T01:00:18.964Z,4.87
2022-07-30T01:02:47.338Z,3.33
2022-07-30T01:05:15.712Z,2.10
2022-07-30T01:07:44.430Z,2.20
2022-07-30T01:10:14.659Z,2.30
2022-07-30T01:12:44.570Z,4.30
2022-07-30T01:15:14.433Z,6.57
2022-07-30T01:17:43.182Z,2.43
2022-07-30T01:20:17.457Z,5.13
2022-07-30T01:22:56.656Z,6.20
2022-07-30T01:25:43.623Z,2.20
2022-07-30T01:28:18.441Z,8.13
2022-07-30T01:30:50.018Z,4.70
2022-07-30T01:33:20.977Z,9.33
2022-07-30T01:35:51.818Z,5.73
2022-07-30T01:38:23.149Z,6.40
2022-07-30T01:40:56.041Z,2.53
2022-07-30T01:43:25.956Z,4.60
2022-07-30T01:45:56.326Z,4.00
2022-07-30T01:48:26.872Z,2.60
2022-07-30T01:50:57.941Z,5.37
2022-07-30T01:53:28.912Z,2.50
2022-07-30T01:56:00.155Z,4.70
2022-07-30T01:58:33.166Z,3.93
2022-07-30T02:01:01.770Z,6.33
2022-07-30T02:03:30.704Z,5.90
2022-07-30T02:06:02.534Z,5.40
2022-07-30T02:08:39.614Z,3.03
2022-07-30T02:11:11.454Z,4.73
2022-07-30T02:13:46.190Z,4.40
2022-07-30T02:16:19.984Z,2.67
2022-07-30T02:18:58.549Z,2.90
2022-07-30T02:21:36.575Z,4.20
2022-07-30T02:24:09.242Z,5.00
2022-07-30T02:26:41.825Z,4.60
2022-07-30T02:29:11.892Z,5.63
2022-07-30T02:31:42.938Z,2.77
2022-07-30T02:34:14.277Z,6.70
2022-07-30T02:36:44.580Z,8.37
2022-07-30T02:39:14.712Z,3.00
2022-07-30T02:41:49.636Z,4.33
2022-07-30T02:44:20.027Z,5.10
2022-07-30T02:46:50.163Z,3.20
2022-07-30T02:49:20.328Z,3.10
2022-07-30T02:51:49.518Z,4.00
2022-07-30T02:54:20.564Z,6.87
2022-07-30T02:56:52.929Z,5.07
2022-07-30T02:59:23.245Z,4.10
2022-07-30T03:01:52.462Z,5.60
2022-07-30T03:04:23.104Z,5.80
2022-07-30T03:06:52.623Z,10.83
2022-07-30T03:09:22.000Z,5.50
2022-07-30T03:11:53.786Z,5.40
2022-07-30T03:14:22.288Z,6.53
2022-07-30T03:16:58.254Z,7.23
2022-07-30T03:19:31.029Z,5.23
2022-07-30T03:22:02.428Z,8.97
2022-07-30T03:24:33.627Z,4.23
2022-07-30T03:27:04.277Z,4.93
2022-07-30T03:29:34.013Z,9.03
2022-07-30T03:32:02.791Z,10.30
2022-07-30T03:34:35.117Z,7.43
2022-07-30T03:37:06.457Z,4.80
2022-07-30T03:39:36.092Z,9.03
2022-07-30T03:42:09.317Z,6.77
2022-07-30T03:44:39.158Z,5.33
2022-07-30T03:47:09.851Z,6.60
2022-07-30T03:49:38.112Z,7.83
2022-07-30T03:52:07.215Z,5.77
2022-07-30T03:54:36.273Z,5.00
2022-07-30T03:57:07.088Z,6.13
2022-07-30T03:59:35.514Z,9.57
2022-07-30T04:02:07.618Z,5.77
2022-07-30T04:04:36.192Z,6.13
2022-07-30T04:07:04.974Z,7.13
2022-07-30T04:09:33.220Z,7.80
2022-07-30T04:12:01.600Z,6.53
2022-07-30T04:14:41.858Z,5.43
2022-07-30T04:17:14.823Z,8.97
2022-07-30T04:19:54.720Z,8.20
2022-07-30T04:22:28.563Z,12.63
2022-07-30T04:24:57.736Z,8.53
2022-07-30T04:27:27.202Z,8.73
2022-07-30T04:29:57.437Z,8.57
2022-07-30T04:32:25.737Z,8.73
2022-07-30T04:34:55.406Z,11.80
2022-07-30T04:37:26.137Z,11.13
2022-07-30T04:39:56.155Z,8.97
2022-07-30T04:42:25.117Z,10.43
2022-07-30T04:44:54.099Z,12.67
2022-07-30T04:47:25.167Z,13.20
2022-07-30T04:49:55.968Z,15.83
2022-07-30T04:52:26.536Z,24.63
2022-07-30T04:54:57.664Z,19.93
2022-07-30T04:57:28.551Z,22.53
2022-07-30T04:59:56.838Z,27.80
2022-07-30T05:02:30.127Z,25.97
2022-07-30T05:05:00.312Z,28.77
2022-07-30T05:07:30.001Z,28.90
2022-07-30T05:09:58.524Z,29.87
2022-07-30T05:12:34.356Z,35.27
2022-07-30T05:15:02.627Z,27.80
2022-07-30T05:17:32.377Z,32.20
2022-07-30T05:20:01.088Z,32.57
2022-07-30T05:22:31.137Z,26.70
2022-07-30T05:24:59.680Z,28.33
2022-07-30T05:27:28.311Z,25.23
2022-07-30T05:29:56.612Z,21.20
2022-07-30T05:32:25.659Z,25.17
2022-07-30T05:34:58.666Z,24.17
2022-07-30T05:37:26.979Z,27.63
2022-07-30T05:39:57.304Z,26.73
2022-07-30T05:42:31.743Z,27.43
2022-07-30T05:45:00.352Z,23.50
2022-07-30T05:47:28.736Z,26.97
2022-07-30T05:50:01.533Z,29.57
2022-07-30T05:52:32.972Z,22.00
2022-07-30T05:55:01.347Z,26.27
2022-07-30T05:57:29.954Z,28.87
2022-07-30T05:59:58.336Z,34.30
2022-07-30T06:02:26.847Z,30.77
2022-07-30T06:04:55.273Z,25.93
2022-07-30T06:07:25.081Z,29.93
2022-07-30T06:09:53.607Z,32.43
2022-07-30T06:12:22.192Z,32.20
2022-07-30T06:14:50.459Z,28.30
2022-07-30T06:17:18.798Z,36.30
2022-07-30T06:19:47.374Z,29.67
2022-07-30T06:22:16.071Z,30.30
2022-07-30T06:24:45.944Z,38.43
2022-07-30T06:27:14.353Z,30.20
2022-07-30T06:29:43.017Z,30.30
2022-07-30T06:32:11.416Z,26.90
2022-07-30T06:34:39.698Z,31.23
2022-07-30T06:37:08.001Z,26.47
2022-07-30T06:39:57.969Z,27.50
2022-07-30T06:42:26.271Z,31.60
2022-07-30T06:44:54.716Z,30.80
2022-07-30T06:47:26.423Z,32.57
2022-07-30T06:49:55.000Z,32.83
2022-07-30T06:52:23.585Z,33.00
2022-07-30T06:54:52.370Z,34.97
2022-07-30T06:57:20.710Z,33.77
2022-07-30T06:59:55.995Z,35.83
2022-07-30T07:02:26.110Z,28.00
2022-07-30T07:04:54.459Z,31.60
2022-07-30T07:07:40.288Z,28.30
2022-07-30T07:10:10.322Z,26.73
2022-07-30T07:12:38.963Z,27.37
2022-07-30T07:15:10.415Z,27.83
2022-07-30T07:17:38.807Z,23.93
2022-07-30T07:20:08.198Z,26.97
2022-07-30T07:22:36.577Z,26.00
2022-07-30T07:25:05.307Z,24.63
2022-07-30T07:27:34.120Z,21.63
2022-07-30T07:30:05.399Z,21.27
2022-07-30T07:32:36.420Z,20.40
2022-07-30T07:35:05.373Z,19.80
2022-07-30T07:37:33.803Z,16.77
2022-07-30T07:40:02.340Z,18.53
2022-07-30T07:42:32.075Z,16.93
2022-07-30T07:45:10.427Z,18.43
2022-07-30T07:47:56.452Z,16.87
2022-07-30T07:50:25.028Z,17.67
2022-07-30T07:52:53.867Z,14.97
2022-07-30T07:55:24.873Z,15.00
2022-07-30T07:57:54.690Z,15.60
2022-07-30T08:00:23.055Z,16.97
2022-07-30T08:02:53.726Z,17.27
2022-07-30T08:05:22.118Z,15.80
2022-07-30T08:07:50.943Z,16.50
2022-07-30T08:10:19.520Z,14.20
2022-07-30T08:12:49.553Z,16.37
2022-07-30T08:15:21.761Z,18.13
2022-07-30T08:17:50.723Z,17.37
2022-07-30T08:20:22.592Z,14.73
2022-07-30T08:22:50.971Z,15.43
2022-07-30T08:25:24.154Z,12.13
2022-07-30T08:27:53.158Z,12.93
2022-07-30T08:30:22.385Z,18.67
2022-07-30T08:32:50.832Z,14.57
2022-07-30T08:35:20.732Z,13.13
2022-07-30T08:37:49.434Z,15.60
2022-07-30T08:40:19.807Z,13.00
2022-07-30T08:42:48.521Z,12.97
2022-07-30T08:45:18.416Z,13.60
2022-07-30T08:47:47.661Z,15.10
2022-07-30T08:50:16.683Z,10.93
2022-07-30T08:52:49.137Z,12.90
2022-07-30T08:55:17.846Z,10.17
2022-07-30T08:57:46.777Z,11.03
2022-07-30T09:00:16.776Z,11.67
2022-07-30T09:02:45.842Z,12.37
2022-07-30T09:05:14.468Z,11.27
2022-07-30T09:07:43.673Z,11.73
2022-07-30T09:10:13.417Z,11.37
2022-07-30T09:12:43.237Z,10.13
2022-07-30T09:15:14.400Z,10.40
2022-07-30T09:17:51.913Z,10.20
2022-07-30T09:20:20.698Z,8.13
2022-07-30T09:22:51.603Z,11.47
2022-07-30T09:25:35.678Z,7.93
2022-07-30T09:28:16.020Z,8.93
2022-07-30T09:30:46.996Z,7.60
2022-07-30T09:33:15.765Z,7.60
2022-07-30T09:35:46.285Z,9.07
2022-07-30T09:38:14.967Z,9.20
2022-07-30T09:40:57.307Z,8.83
2022-07-30T09:43:28.047Z,8.63
2022-07-30T09:46:00.569Z,6.10
2022-07-30T09:48:29.567Z,6.30
2022-07-30T09:50:58.078Z,6.50
2022-07-30T09:53:26.635Z,8.63
2022-07-30T09:55:56.507Z,4.60
2022-07-30T09:58:27.173Z,11.03
2022-07-30T10:01:00.164Z,8.40
2022-07-30T10:03:34.463Z,7.20
2022-07-30T10:06:12.029Z,6.50
2022-07-30T10:08:42.724Z,7.70
2022-07-30T10:11:22.718Z,6.63
2022-07-30T10:13:56.335Z,5.63
2022-07-30T10:16:27.783Z,9.07
2022-07-30T10:19:00.300Z,5.60
2022-07-30T10:21:32.464Z,3.90
2022-07-30T10:24:01.382Z,4.60
2022-07-30T10:26:36.304Z,7.57
2022-07-30T10:29:16.709Z,4.53
2022-07-30T10:31:57.554Z,8.33
2022-07-30T10:34:29.354Z,7.87
2022-07-30T10:37:06.654Z,6.03
2022-07-30T10:39:40.492Z,4.07
2022-07-30T10:42:36.208Z,5.50
2022-07-30T10:45:17.886Z,3.40
2022-07-30T10:47:49.880Z,9.63
2022-07-30T10:50:33.298Z,6.10
2022-07-30T10:53:02.824Z,4.77
2022-07-30T10:55:38.913Z,4.80
2022-07-30T10:58:09.755Z,6.97
2022-07-30T11:01:00.991Z,5.57
2022-07-30T11:03:40.335Z,3.57
2022-07-30T11:06:29.849Z,7.30
2022-07-30T11:08:58.637Z,5.33
2022-07-30T11:12:05.429Z,3.80
2022-07-30T11:15:06.174Z,5.77
2022-07-30T11:18:03.021Z,7.53
2022-07-30T11:20:33.646Z,3.03
2022-07-30T11:23:39.394Z,3.97
2022-07-30T11:26:14.395Z,2.40
2022-07-30T11:28:45.292Z,3.37
2022-07-30T11:31:55.115Z,4.13
2022-07-30T11:34:31.365Z,2.80
2022-07-30T11:37:18.294Z,3.87
2022-07-30T11:40:12.694Z,3.10
2022-07-30T11:42:42.934Z,2.10
2022-07-30T11:45:29.841Z,3.10
2022-07-30T11:48:03.858Z,5.03
2022-07-30T11:50:34.692Z,2.93
2022-07-30T11:53:04.758Z,1.40
2022-07-30T11:55:36.402Z,2.83
2022-07-30T11:58:07.494Z,2.40
2022-07-30T12:00:38.547Z,2.53
2022-07-30T12:03:15.611Z,1.40
2022-07-30T12:05:44.918Z,2.50
2022-07-30T12:08:35.160Z,1.80
2022-07-30T12:11:04.736Z,2.60
2022-07-30T12:13:44.166Z,2.03
2022-07-30T12:16:17.731Z,2.13
2022-07-30T12:18:47.670Z,6.20
2022-07-30T12:21:17.050Z,2.10
2022-07-30T12:23:56.543Z,1.40
2022-07-30T12:26:29.027Z,1.87
2022-07-30T12:28:58.372Z,3.37
2022-07-30T12:31:27.348Z,1.43
2022-07-30T12:33:58.923Z,2.67
2022-07-30T12:36:31.067Z,1.80
2022-07-30T12:38:59.775Z,1.10
2022-07-30T12:41:45.052Z,1.77
2022-07-30T12:44:37.562Z,4.20
2022-07-30T12:47:07.962Z,1.10
2022-07-30T12:49:45.843Z,1.63
2022-07-30T12:52:30.838Z,2.13
2022-07-30T12:55:05.293Z,1.33
2022-07-30T12:57:58.171Z,3.23
2022-07-30T13:00:28.680Z,1.00
2022-07-30T13:02:57.411Z,1.43
2022-07-30T13:05:48.562Z,1.00
2022-07-30T13:08:17.160Z,1.20
2022-07-30T13:10:59.941Z,2.43
2022-07-30T13:13:31.073Z,1.87
2022-07-30T13:16:01.355Z,1.37
2022-07-30T13:18:30.863Z,2.17
2022-07-30T13:20:59.632Z,1.93
2022-07-30T13:23:29.939Z,1.00
2022-07-30T13:25:58.660Z,2.40
2022-07-30T13:28:28.030Z,0.70
2022-07-30T13:30:58.117Z,0.97
2022-07-30T13:33:26.643Z,1.00
2022-07-30T13:35:55.182Z,1.00
2022-07-30T13:38:24.243Z,1.20
2022-07-30T13:40:53.153Z,1.20
2022-07-30T13:43:21.673Z,1.83
2022-07-30T13:45:52.101Z,2.03
2022-07-30T13:48:22.249Z,1.00
2022-07-30T13:50:50.564Z,0.80
2022-07-30T13:53:19.051Z,2.47
2022-07-30T13:55:47.755Z,0.70
2022-07-30T13:58:16.653Z,0.73
2022-07-30T14:00:47.867Z,2.20
2022-07-30T14:03:16.293Z,1.97
2022-07-30T14:05:46.125Z,0.77
2022-07-30T14:08:14.473Z,1.33
2022-07-30T14:10:42.779Z,0.70
2022-07-30T14:13:16.058Z,0.60
2022-07-30T14:15:49.891Z,1.73
2022-07-30T14:18:18.341Z,0.60
2022-07-30T14:20:49.455Z,1.33
2022-07-30T14:23:18.233Z,1.33
2022-07-30T14:25:46.873Z,3.37
2022-07-30T14:28:15.251Z,0.83
2022-07-30T14:30:43.733Z,1.57
2022-07-30T14:33:12.423Z,1.63
2022-07-30T14:35:40.748Z,1.57
2022-07-30T14:38:10.521Z,2.20
2022-07-30T14:40:38.902Z,0.80
2022-07-30T14:43:07.192Z,3.17
2022-07-30T14:45:36.647Z,0.60
2022-07-30T14:48:05.325Z,1.30
2022-07-30T14:50:39.420Z,2.00
2022-07-30T14:53:22.509Z,1.70
2022-07-30T14:55:51.000Z,1.43
2022-07-30T14:58:19.310Z,1.90
2022-07-30T15:00:48.308Z,1.37
2022-07-30T15:03:17.388Z,2.20
2022-07-30T15:05:49.025Z,2.80
2022-07-30T15:08:21.839Z,1.47
2022-07-30T15:10:51.082Z,1.07
2022-07-30T15:13:19.640Z,2.90
2022-07-30T15:15:49.325Z,2.43
2022-07-30T15:18:17.611Z,2.53
2022-07-30T15:20:45.992Z,3.63
2022-07-30T15:23:15.581Z,1.70
2022-07-30T15:25:45.912Z,1.90
2022-07-30T15:28:14.546Z,2.43
2022-07-30T15:30:43.052Z,2.10
2022-07-30T15:33:11.397Z,1.60
2022-07-30T15:35:39.794Z,2.70
2022-07-30T15:38:08.179Z,1.03
2022-07-30T15:40:36.494Z,0.80
2022-07-30T15:43:10.387Z,1.07
2022-07-30T15:45:55.550Z,0.97
2022-07-30T15:48:27.416Z,4.67
2022-07-30T15:51:00.846Z,2.13
2022-07-30T15:53:29.912Z,1.10
2022-07-30T15:55:58.355Z,1.97
2022-07-30T15:58:28.404Z,4.10
2022-07-30T16:00:56.945Z,2.07
2022-07-30T16:03:25.697Z,2.60
2022-07-30T16:05:54.004Z,3.83
2022-07-30T16:08:22.956Z,2.47
2022-07-30T16:10:52.067Z,0.77
2022-07-30T16:13:20.430Z,1.03
2022-07-30T16:15:50.200Z,5.20
2022-07-30T16:18:18.417Z,2.63
2022-07-30T16:20:46.738Z,3.70
2022-07-30T16:23:20.939Z,2.50
2022-07-30T16:25:49.738Z,4.50
2022-07-30T16:28:18.569Z,2.53
2022-07-30T16:30:50.495Z,3.03
2022-07-30T16:33:21.637Z,4.33
2022-07-30T16:35:51.161Z,2.40
2022-07-30T16:38:20.863Z,3.60
2022-07-30T16:40:49.347Z,2.17
2022-07-30T16:43:19.717Z,2.60
2022-07-30T16:45:48.535Z,2.00
2022-07-30T16:48:17.154Z,3.07
2022-07-30T16:50:47.753Z,2.57
2022-07-30T16:53:16.546Z,3.10
2022-07-30T16:55:47.274Z,2.93
2022-07-30T16:58:15.868Z,2.53
2022-07-30T17:00:44.731Z,2.50
2022-07-30T17:03:20.164Z,1.20
2022-07-30T17:05:50.504Z,1.27
2022-07-30T17:08:19.358Z,2.37
2022-07-30T17:10:54.053Z,1.33
2022-07-30T17:13:22.708Z,1.87
2022-07-30T17:15:51.206Z,3.50
2022-07-30T17:18:19.945Z,2.40
2022-07-30T17:20:49.658Z,0.90
2022-07-30T17:23:18.080Z,1.07
2022-07-30T17:25:46.646Z,1.70
2022-07-30T17:28:15.492Z,1.63
2022-07-30T17:30:43.961Z,0.80
2022-07-30T17:33:12.457Z,1.83
2022-07-30T17:35:40.945Z,1.50
2022-07-30T17:38:10.790Z,1.37
2022-07-30T17:40:39.275Z,2.53
2022-07-30T17:43:07.921Z,0.87
2022-07-30T17:45:37.522Z,6.57
2022-07-30T17:48:07.104Z,1.40
2022-07-30T17:50:36.457Z,0.77
2022-07-30T17:53:06.085Z,1.47
2022-07-30T17:55:36.184Z,1.63
2022-07-30T17:58:05.229Z,1.67
2022-07-30T18:00:34.871Z,2.30
2022-07-30T18:03:03.712Z,2.90
2022-07-30T18:05:32.071Z,1.00
2022-07-30T18:08:00.676Z,2.10
2022-07-30T18:10:29.085Z,2.13
2022-07-30T18:12:58.746Z,1.73
2022-07-30T18:15:47.062Z,1.27
2022-07-30T18:18:15.514Z,2.03
2022-07-30T18:20:48.136Z,6.40
2022-07-30T18:23:19.243Z,2.23
2022-07-30T18:25:51.532Z,1.67
2022-07-30T18:28:22.809Z,1.73
2022-07-30T18:30:51.527Z,1.40
2022-07-30T18:33:20.096Z,3.40
2022-07-30T18:35:48.561Z,1.50
2022-07-30T18:38:17.068Z,3.60
2022-07-30T18:40:57.617Z,2.10
2022-07-30T18:43:28.519Z,1.73
2022-07-30T18:46:05.668Z,1.57
2022-07-30T18:48:42.511Z,1.70
2022-07-30T18:51:13.999Z,5.07
2022-07-30T18:53:42.912Z,1.67
2022-07-30T18:56:11.337Z,3.43
2022-07-30T18:58:41.177Z,1.93
2022-07-30T19:01:09.744Z,1.80
2022-07-30T19:03:38.182Z,1.40
2022-07-30T19:06:06.639Z,1.30
2022-07-30T19:08:35.018Z,2.83
2022-07-30T19:11:03.574Z,4.73
2022-07-30T19:13:31.968Z,1.43
2022-07-30T19:16:01.734Z,1.17
2022-07-30T19:18:30.116Z,1.63
2022-07-30T19:20:58.548Z,2.40
2022-07-30T19:23:26.882Z,3.40
2022-07-30T19:25:55.283Z,2.53
2022-07-30T19:28:25.095Z,2.53
2022-07-30T19:30:53.771Z,2.47
2022-07-30T19:33:24.233Z,2.23
2022-07-30T19:35:52.542Z,2.80
2022-07-30T19:38:21.821Z,1.53
2022-07-30T19:40:52.661Z,2.90
2022-07-30T19:46:10.727Z,1.37
2022-07-30T19:48:41.071Z,2.50
2022-07-30T19:51:20.240Z,2.07
2022-07-30T19:53:49.677Z,2.07
2022-07-30T19:56:18.067Z,2.67
2022-07-30T19:58:48.417Z,7.00
2022-07-30T20:01:16.852Z,3.37
2022-07-30T20:03:46.778Z,6.70
2022-07-30T20:06:16.253Z,4.10
2022-07-30T20:08:45.369Z,3.53
2022-07-30T20:11:35.144Z,1.63
2022-07-30T20:14:02.886Z,2.93
2022-07-30T20:16:32.845Z,1.73
2022-07-30T20:19:09.767Z,1.83
2022-07-30T20:21:56.391Z,1.83
2022-07-30T20:24:33.139Z,4.57
2022-07-30T20:27:36.408Z,3.43
2022-07-30T20:29:50.172Z,4.57
2022-07-30T20:32:19.595Z,6.20
2022-07-30T20:34:49.329Z,4.53
2022-07-30T20:37:21.874Z,3.10
2022-07-30T20:39:51.051Z,2.90
2022-07-30T20:42:21.747Z,2.83
2022-07-30T20:44:53.524Z,4.30
2022-07-30T20:47:34.836Z,1.47
2022-07-30T20:50:10.157Z,2.07
2022-07-30T20:52:40.245Z,3.20
2022-07-30T20:55:10.123Z,4.70
2022-07-30T20:57:56.834Z,2.57
2022-07-30T21:00:31.671Z,3.23
2022-07-30T21:03:03.196Z,2.30
2022-07-30T21:05:35.588Z,2.53
2022-07-30T21:08:04.296Z,1.40
2022-07-30T21:10:35.835Z,3.37
2022-07-30T21:13:07.615Z,3.57
2022-07-30T21:15:37.074Z,2.30
2022-07-30T21:18:14.377Z,6.97
2022-07-30T21:20:47.384Z,2.40
2022-07-30T21:23:20.701Z,2.23
2022-07-30T21:26:00.669Z,6.83
2022-07-30T21:28:35.520Z,3.00
2022-07-30T21:31:06.930Z,2.50
2022-07-30T21:33:36.507Z,3.00
2022-07-30T21:36:10.168Z,5.10
2022-07-30T21:38:41.852Z,1.83
2022-07-30T21:41:14.122Z,1.83
2022-07-30T21:43:44.224Z,3.87
2022-07-30T21:46:13.596Z,1.30
2022-07-30T21:48:43.264Z,2.03
2022-07-30T21:51:15.749Z,2.50
2022-07-30T21:53:46.137Z,3.90
2022-07-30T21:56:15.948Z,3.13
2022-07-30T21:58:45.333Z,2.27
2022-07-30T22:01:16.798Z,1.50
2022-07-30T22:04:05.212Z,1.67
2022-07-30T22:06:39.425Z,1.77
2022-07-30T22:09:18.974Z,1.33
2022-07-30T22:12:00.877Z,1.47
2022-07-30T22:14:31.456Z,1.00
2022-07-30T22:17:00.597Z,2.60
2022-07-30T22:19:32.925Z,1.73
2022-07-30T22:22:05.165Z,3.63
2022-07-30T22:24:51.077Z,1.80
2022-07-30T22:27:19.353Z,1.90
2022-07-30T22:29:50.937Z,2.10
2022-07-30T22:32:24.045Z,2.40
2022-07-30T22:34:52.908Z,3.57
2022-07-30T22:37:23.109Z,1.30
2022-07-30T22:39:54.244Z,1.87
2022-07-30T22:42:24.501Z,2.93
2022-07-30T22:44:55.933Z,1.57
2022-07-30T22:47:50.998Z,2.93
2022-07-30T22:50:14.747Z,2.10
2022-07-30T22:52:59.804Z,2.40
2022-07-30T22:55:36.594Z,1.53
2022-07-30T22:58:09.884Z,1.30
2022-07-30T23:00:40.826Z,1.33
2022-07-30T23:03:09.806Z,1.90
2022-07-30T23:05:40.030Z,2.17
2022-07-30T23:08:13.810Z,2.33
2022-07-30T23:10:42.314Z,3.90
2022-07-30T23:12:16.737Z,5.03
2022-07-30T23:13:11.073Z,1.53
2022-07-30T23:15:39.488Z,2.10
2022-07-30T23:18:08.450Z,1.23
2022-07-30T23:20:36.902Z,1.30
2022-07-30T23:23:05.843Z,1.60
2022-07-30T23:25:39.030Z,2.47
2022-07-30T23:28:07.894Z,1.47
2022-07-30T23:30:36.757Z,1.20
2022-07-30T23:33:05.735Z,2.37
2022-07-30T23:35:35.064Z,0.90
2022-07-30T23:38:03.579Z,1.93
2022-07-30T23:40:32.131Z,1.20
2022-07-30T23:43:02.162Z,1.10
2022-07-30T23:45:31.122Z,1.33
2022-07-30T23:48:02.615Z,2.57
2022-07-30T23:50:33.006Z,1.20
2022-07-30T23:53:01.659Z,3.37
2022-07-30T23:55:31.118Z,5.50
2022-07-30T23:58:01.478Z,1.40
